Thetford Center, VT (05075)

6:12 AM EDT on July 29, 2016 (GMT -0400)
Lyme School | | Change Station

Elev 545 ft 43.81 °N, 72.16 °W | Updated 14 minutes ago

Mostly Cloudy
Mostly Cloudy
64.4 °F
Feels Like 64.4 °F
N
0.0
Wind Variable Wind from North
Gusts 1.0 mph

Today
High -- | Low -- °F
--% Chance of Precip.
Yesterday
High -- | Low -- °F
Precip. -- in
Pressure 29.86 in
Visibility 7.0 miles
Clouds Scattered Clouds 4700 ft
Mostly Cloudy 5500 ft
Dew Point 63 °F
Humidity 95%
Rainfall 0.00 in
Snow Depth Not available.
5:35 AM 8:15 PM
Waning Crescent, 23% visible
METAR KLEB 290953Z 00000KT 7SM SCT047 BKN055 19/18 A2989 RMK AO2 SLP110 T01940178
Pressure 29.86 in
Visibility 7.0 miles
Clouds Scattered Clouds 4700 ft
Mostly Cloudy 5500 ft
Dew Point 63 °F
Humidity 95%
Rainfall 0.00 in
Snow Depth Not available.
5:35 AM 8:15 PM
Waning Crescent, 23% visible
METAR KLEB 290953Z 00000KT 7SM SCT047 BKN055 19/18 A2989 RMK AO2 SLP110 T01940178

10-Day Weather Forecast

Almanac

Astronomy

Jul. 29, 2016 Rise Set
Actual Time
Civil Twilight
Nautical Twilight
Astronomical Twilight
Moon
Length of Visible Light
Length of Day
Tomorrow will be .
, % of the Moon is Illuminated

Today's Extremes

State Highs State Lows

Community

WunderPhotos

Upload Photos

1,928,310 photos uploaded!

WunderBlog® & News

Nearby

Air Quality

  Air Quality AQ Index Pollutant
Not available.

Snow Depth

Station Depth Elevation

Earthquake Activity

City Distance Mag. Time & Date
Minimum magnitude displayed is 2.5.

Coastal Water Temperatures

Place Temperature

Stations

Nearby Weather Stations

Station Location Temp. Windchill Dew Point Humidity Wind Precip. Elev Updated Type
                   

Watches & Warnings

There are currently no watches in effect.